Preschen, Germany

8:58 AM CEST on August 28, 2014 (GMT +0200)
Bad Muskau | Change Station
CLOSE
Current Station
Personal Weather Station
Location: Bad Muskau, SACHSEN
Elevation: 410 ft
Nearby Weather Stations

Elev 410 ft 51.55 °N, 14.70 °E | Updated 2 minutes ago

Clear
Clear
53.8 °F
Feels Like 53.8 °F
N
0.4
Wind Variable Wind from SE
Gusts 3.9 mph

Today
High -- | Low -- °F
--% Chance of Precip.
Yesterday
High -- | Low -- °F
Precip. -- in
6:07 AM 7:57 PM
Waxing Crescent, 7% visible
Pressure 30.09 in
Visibility -9999.0 miles
Clouds
Dew Point 51 °F
Humidity 90%
Rainfall 0.00 in
Snow Depth Not available.
UV 0.0 out of 12
Pollen Not available.
Air Quality Not available.
Flu Activity Not available.
METAR EDDC 280650Z 20005KT CAVOK 12/08 Q1019 NOSIG

More Conditions Fewer Conditions

Pressure 30.09 in
Visibility -9999.0 miles
Clouds
Dew Point 51 °F
Humidity 90%
Rainfall 0.00 in
Snow Depth Not available.
UV 0.0 out of 12
Pollen Not available.
Air Quality Not available.
Flu Activity Not available.
METAR EDDC 280650Z 20005KT CAVOK 12/08 Q1019 NOSIG

More Conditions Fewer Conditions

10-Day Weather Forecast

Almanac

Astronomy

Aug. 28, 2014 Rise Set
Actual Time 6:07 AM CEST 7:57 PM CEST
Civil Twilight 5:31 AM CEST 8:32 PM CEST
Nautical Twilight 4:47 AM CEST 9:16 PM CEST
Astronomical Twilight 3:57 AM CEST 10:05 PM CEST
Moon 9:06 AM CEST 8:45 PM CEST
Length of Visible Light 15h 01m
Length of Day
13h 50m
Tomorrow will be 3m 48s shorter.
Waxing Crescent, 7% of the Moon is Illuminated
Today
Waxing Crescent
Sep 2
First Quarter
Sep 8
Full
Sep 15
Last Quarter
Sep 24
New

Yesterday's Extremes

Country Highs Country Lows

Community

WunderPhotos

Upload Photos

1,747,912 photos uploaded!

Nearby

Snow Depth

Not available.

Earthquake Activity

City Distance Mag. Time & Date
No recent earthquake activity has been reported nearby.
Minimum magnitude displayed is 2.5.

Coastal Water Temperatures

Place Temperature
No Stations Reporting

Nearby Weather Stations